| time (UTC) | temp C | wind direction | speed KPH | gust KPH | rain 1hr cm | rain 24hr cm | rain mn cm | humidity % | barometer mb |
| 20260510204500 | 19 | 358 | 1.6 | 3.2 | 0.00 | 0.00 | 0.00 | 77 | 1012.3 |
| 20260510203000 | 19 | 33 | 0.0 | 1.6 | 0.00 | 0.00 | 0.00 | 80 | 1012.1 |
| 20260510201500 | 19 | 0.0 | 0.0 | 0.00 | 0.00 | 0.00 | 77 | 1012.2 | |
| 20260510200000 | 19 | 23 | 0.0 | 1.6 | 0.00 | 0.00 | 0.00 | 75 | 1012.2 |
| 20260510194500 | 19 | 42 | 0.0 | 1.6 | 0.00 | 0.00 | 0.00 | 76 | 1012.2 |
| 20260510193000 | 20 | 103 | 3.2 | 6.4 | 0.00 | 0.00 | 0.00 | 75 | 1012.3 |
| 20260510191500 | 21 | 181 | 1.6 | 3.2 | 0.00 | 0.00 | 0.00 | 71 | 1012.2 |
| 20260510190000 | 21 | 81 | 0.0 | 0.0 | 0.00 | 0.00 | 0.00 | 69 | 1012.4 |
| 20260510184500 | 21 | 192 | 0.0 | 3.2 | 0.00 | 0.00 | 0.00 | 70 | 1012.6 |
| 20260510183000 | 21 | 103 | 1.6 | 4.8 | 0.00 | 0.00 | 0.00 | 71 | 1012.6 |
| 20260510181500 | 19 | 2 | 0.0 | 1.6 | 0.00 | 0.00 | 0.00 | 75 | 1012.7 |
| 20260510180000 | 18 | 221 | 1.6 | 3.2 | 0.00 | 0.00 | 0.00 | 78 | 1012.6 |
| 20260510174500 | 18 | 351 | 0.0 | 1.6 | 0.00 | 0.00 | 0.00 | 78 | 1012.5 |
| 20260510173000 | 18 | 94 | 0.0 | 1.6 | 0.00 | 0.00 | 0.00 | 76 | 1012.8 |
| 20260510171500 | 20 | 336 | 1.6 | 4.8 | 0.00 | 0.00 | 0.00 | 75 | 1012.8 |
| 20260510170000 | 18 | 197 | 0.0 | 3.2 | 0.00 | 0.00 | 0.00 | 77 | 1012.8 |
| 20260510164500 | 18 | 138 | 3.2 | 8.0 | 0.00 | 0.00 | 0.00 | 77 | 1012.9 |
| 20260510163000 | 18 | 171 | 1.6 | 6.4 | 0.00 | 0.00 | 0.00 | 78 | 1012.8 |
| 20260510161500 | 18 | 205 | 3.2 | 8.0 | 0.00 | 0.00 | 0.00 | 78 | 1013.0 |
| 20260510160000 | 17 | 117 | 4.8 | 6.4 | 0.00 | 0.00 | 0.00 | 80 | 1013.1 |
| 20260510154500 | 17 | 101 | 4.8 | 8.0 | 0.00 | 0.00 | 0.00 | 82 | 1013.3 |
| 20260510153000 | 16 | 191 | 1.6 | 3.2 | 0.00 | 0.00 | 0.00 | 83 | 1013.2 |
| 20260510151500 | 16 | 70 | 1.6 | 3.2 | 0.00 | 0.00 | 0.00 | 85 | 1013.3 |
| 20260510150000 | 16 | 58 | 1.6 | 3.2 | 0.00 | 0.00 | 0.00 | 85 | 1013.4 |
| 20260510144500 | 15 | 49 | 3.2 | 4.8 | 0.00 | 0.00 | 0.00 | 86 | 1013.4 |
| 20260510143000 | 15 | 90 | 3.2 | 6.4 | 0.00 | 0.00 | 0.00 | 84 | 1013.5 |
| 20260510141500 | 14 | 128 | 4.8 | 8.0 | 0.00 | 0.00 | 0.00 | 87 | 1013.2 |
| 20260510140000 | 14 | 97 | 3.2 | 6.4 | 0.00 | 0.00 | 0.00 | 89 | 1013.3 |
| 20260510134500 | 13 | 124 | 3.2 | 6.4 | 0.00 | 0.00 | 0.00 | 89 | 1013.1 |
| 20260510133000 | 13 | 100 | 1.6 | 3.2 | 0.00 | 0.00 | 0.00 | 94 | 1013.2 |
| 20260510131500 | 13 | 94 | 1.6 | 1.6 | 0.00 | 0.00 | 0.00 | 95 | 1013.0 |
| 20260510130000 | 12 | 51 | 1.6 | 3.2 | 0.00 | 0.00 | 0.00 | 97 | 1012.9 |
| 20260510124500 | 12 | 88 | 1.6 | 1.6 | 0.00 | 0.00 | 0.00 | 98 | 1012.9 |
| 20260510123000 | 12 | 210 | 1.6 | 1.6 | 0.00 | 0.00 | 0.00 | 99 | 1012.7 |
| 20260510121500 | 12 | 14 | 0.0 | 0.0 | 0.00 | 0.00 | 0.00 | 100 | 1012.5 |
| 20260510120000 | 12 | 117 | 1.6 | 3.2 | 0.00 | 0.00 | 0.00 | 99 | 1012.4 |
| 20260510114500 | 11 | 98 | 3.2 | 3.2 | 0.00 | 0.00 | 0.00 | 99 | 1012.5 |
| 20260510113000 | 11 | 0.0 | 0.0 | 0.00 | 0.00 | 0.00 | 99 | 1012.1 | |
| 20260510111500 | 11 | 0.0 | 0.0 | 0.00 | 0.00 | 0.00 | 99 | 1012.1 | |
| 20260510110000 | 11 | 349 | 0.0 | 1.6 | 0.00 | 0.00 | 0.00 | 99 | 1011.7 |
| 20260510104500 | 11 | 0.0 | 0.0 | 0.00 | 0.00 | 0.00 | 99 | 1011.7 | |
| 20260510103000 | 11 | 0.0 | 0.0 | 0.00 | 0.00 | 0.00 | 99 | 1011.6 | |
| 20260510101500 | 11 | 296 | 0.0 | 1.6 | 0.00 | 0.00 | 0.00 | 99 | 1011.7 |
| 20260510100000 | 11 | 34 | 1.6 | 1.6 | 0.00 | 0.00 | 0.00 | 99 | 1011.4 |
| 20260510094500 | 11 | 328 | 3.2 | 3.2 | 0.00 | 0.00 | 0.00 | 99 | 1011.5 |
| 20260510093000 | 11 | 0.0 | 0.0 | 0.00 | 0.00 | 0.00 | 99 | 1011.7 | |
| 20260510091500 | 11 | 0.0 | 0.0 | 0.00 | 0.00 | 0.00 | 99 | 1011.7 | |
| 20260510090000 | 11 | 333 | 0.0 | 1.6 | 0.00 | 0.00 | 0.00 | 99 | 1011.9 |
| 20260510084500 | 11 | 301 | 0.0 | 0.0 | 0.00 | 0.00 | 0.00 | 99 | 1012.0 |
| 20260510083000 | 11 | 90 | 0.0 | 1.6 | 0.00 | 0.00 | 0.00 | 99 | 1011.9 |
| 20260510081500 | 11 | 66 | 0.0 | 1.6 | 0.00 | 0.00 | 0.00 | 99 | 1012.0 |
| 20260510080000 | 11 | 110 | 1.6 | 3.2 | 0.00 | 0.00 | 0.00 | 99 | 1011.7 |
| 20260510074500 | 11 | 84 | 0.0 | 1.6 | 0.00 | 0.00 | 0.00 | 99 | 1011.5 |
| 20260510073000 | 11 | 355 | 0.0 | 1.6 | 0.00 | 0.00 | 0.00 | 99 | 1011.2 |
| 20260510071500 | 11 | 356 | 0.0 | 1.6 | 0.00 | 0.00 | 0.00 | 99 | 1011.3 |
| 20260510070000 | 11 | 18 | 1.6 | 1.6 | 0.00 | 0.00 | 0.00 | 99 | 1011.5 |
| 20260510064500 | 11 | 357 | 0.0 | 1.6 | 0.00 | 0.00 | 0.00 | 99 | 1011.5 |
| 20260510063000 | 11 | 336 | 1.6 | 3.2 | 0.00 | 0.00 | 0.00 | 99 | 1011.6 |
| 20260510061500 | 11 | 343 | 0.0 | 1.6 | 0.00 | 0.00 | 0.00 | 99 | 1011.6 |
| 20260510060000 | 11 | 346 | 0.0 | 1.6 | 0.00 | 0.00 | 0.00 | 99 | 1011.4 |
| 20260510054500 | 11 | 326 | 1.6 | 3.2 | 0.00 | 0.00 | 0.00 | 99 | 1011.3 |
| 20260510053000 | 11 | 351 | 0.0 | 3.2 | 0.00 | 0.00 | 0.00 | 99 | 1011.2 |
| 20260510051500 | 11 | 6 | 1.6 | 1.6 | 0.00 | 0.00 | 0.00 | 99 | 1011.2 |
| 20260510050000 | 11 | 0.0 | 0.0 | 0.00 | 0.00 | 0.00 | 99 | 1011.5 | |
| 20260510044500 | 11 | 0.0 | 0.0 | 0.00 | 0.00 | 0.00 | 99 | 1011.5 | |
| 20260510043000 | 11 | 0.0 | 0.0 | 0.00 | 0.00 | 0.00 | 100 | 1011.4 | |
| 20260510041500 | 11 | 0.0 | 0.0 | 0.00 | 0.00 | 0.00 | 100 | 1011.5 | |
| 20260510040000 | 11 | 0.0 | 0.0 | 0.00 | 0.00 | 1.12 | 100 | 1011.3 | |
| 20260510034500 | 11 | 0.0 | 0.0 | 0.00 | 0.00 | 1.12 | 100 | 1011.3 | |
| 20260510033000 | 11 | 357 | 1.6 | 1.6 | 0.00 | 0.00 | 1.12 | 99 | 1011.0 |
| 20260510031500 | 11 | 5 | 0.0 | 1.6 | 0.00 | 0.00 | 1.12 | 99 | 1011.1 |
| 20260510030000 | 11 | 353 | 0.0 | 3.2 | 0.00 | 0.00 | 1.12 | 99 | 1011.1 |
| 20260510024500 | 11 | 356 | 1.6 | 3.2 | 0.00 | 0.00 | 1.12 | 99 | 1011.4 |
| 20260510023000 | 11 | 338 | 1.6 | 3.2 | 0.00 | 0.00 | 1.12 | 99 | 1011.2 |
| 20260510021500 | 11 | 344 | 1.6 | 3.2 | 0.00 | 0.00 | 1.12 | 99 | 1011.1 |
| 20260510020000 | 11 | 12 | 0.0 | 0.0 | 0.00 | 0.00 | 1.12 | 99 | 1011.3 |
| 20260510014500 | 11 | 0.0 | 0.0 | 0.00 | 0.00 | 1.12 | 99 | 1011.0 | |
| 20260510013000 | 11 | 0.0 | 0.0 | 0.00 | 0.00 | 1.12 | 99 | 1011.0 | |
| 20260510011500 | 11 | 5 | 1.6 | 1.6 | 0.00 | 0.00 | 1.12 | 99 | 1010.8 |
| 20260510010000 | 11 | 0.0 | 0.0 | 0.00 | 0.00 | 1.12 | 98 | 1010.6 | |
| 20260510004500 | 11 | 0.0 | 0.0 | 0.00 | 0.00 | 1.12 | 98 | 1010.6 | |
| 20260510003000 | 11 | 0.0 | 0.0 | 0.00 | 0.00 | 1.12 | 98 | 1010.6 | |
| 20260510001500 | 11 | 321 | 0.0 | 0.0 | 0.00 | 0.00 | 1.12 | 98 | 1010.6 |
| 20260510000000 | 12 | 324 | 0.0 | 1.6 | 0.00 | 0.00 | 1.12 | 97 | 1010.3 |
| 20260509234500 | 12 | 8 | 0.0 | 0.0 | 0.00 | 0.00 | 1.12 | 97 | 1010.3 |
| 20260509233000 | 12 | 318 | 0.0 | 1.6 | 0.00 | 0.00 | 1.12 | 97 | 1010.3 |
| 20260509231500 | 12 | 0.0 | 0.0 | 0.00 | 0.00 | 1.12 | 97 | 1010.3 | |
| 20260509230000 | 12 | 266 | 0.0 | 3.2 | 0.05 | 0.00 | 1.12 | 97 | 1010.5 |
| 20260509224500 | 12 | 327 | 3.2 | 3.2 | 0.33 | 0.00 | 1.12 | 97 | 1010.4 |
| 20260509223000 | 12 | 331 | 0.0 | 3.2 | 0.33 | 0.00 | 1.12 | 97 | 1010.5 |
| 20260509221500 | 12 | 0.0 | 0.0 | 0.43 | 0.00 | 1.12 | 97 | 1010.6 | |
| 20260509220000 | 12 | 316 | 3.2 | 4.8 | 0.38 | 0.00 | 1.07 | 97 | 1010.7 |
| 20260509214500 | 12 | 0.0 | 0.0 | 0.33 | 0.00 | 0.99 | 97 | 1011.1 | |
| 20260509213000 | 12 | 359 | 0.0 | 1.6 | 0.30 | 0.00 | 0.79 | 96 | 1011.1 |
| 20260509211500 | 12 | 307 | 1.6 | 3.2 | 0.23 | 0.00 | 0.74 | 96 | 1010.9 |
| 20260509210000 | 12 | 321 | 0.0 | 1.6 | 0.25 | 0.00 | 0.66 | 95 | 1011.0 |